createdAt,value
2019-01-23T00:01:59.035Z,25.53
2019-01-23T00:04:29.721Z,27.22
2019-01-23T00:07:00.976Z,27.40
2019-01-23T00:09:31.384Z,26.30
2019-01-23T00:12:01.750Z,25.37
2019-01-23T00:14:32.065Z,28.13
2019-01-23T00:17:02.369Z,26.90
2019-01-23T00:19:32.852Z,28.07
2019-01-23T00:22:03.179Z,26.70
2019-01-23T00:24:33.589Z,26.90
2019-01-23T00:27:03.921Z,27.13
2019-01-23T00:29:34.217Z,27.07
2019-01-23T00:32:04.591Z,26.02
2019-01-23T00:34:34.970Z,28.17
2019-01-23T00:37:05.360Z,28.20
2019-01-23T00:39:35.644Z,27.15
2019-01-23T00:42:06.073Z,27.70
2019-01-23T00:44:40.824Z,26.63
2019-01-23T00:47:11.199Z,27.17
2019-01-23T00:49:41.670Z,27.60
2019-01-23T00:52:12.245Z,26.67
2019-01-23T00:54:42.483Z,28.40
2019-01-23T00:57:12.825Z,28.25
2019-01-23T00:59:43.119Z,29.67
2019-01-23T01:02:13.467Z,27.87
2019-01-23T01:04:43.778Z,28.30
2019-01-23T01:07:14.057Z,28.75
2019-01-23T01:09:44.397Z,27.87
2019-01-23T01:12:14.943Z,26.73
2019-01-23T01:14:45.296Z,27.50
2019-01-23T01:17:15.637Z,27.10
2019-01-23T01:19:46.170Z,28.17
2019-01-23T01:22:16.394Z,28.07
2019-01-23T01:24:47.035Z,26.90
2019-01-23T01:27:17.328Z,28.20
2019-01-23T01:29:47.599Z,28.27
2019-01-23T01:32:18.239Z,28.47
2019-01-23T01:34:49.018Z,27.67
2019-01-23T01:37:20.119Z,27.10
2019-01-23T01:39:50.422Z,28.90
2019-01-23T01:42:20.807Z,28.63
2019-01-23T01:44:51.545Z,28.03
2019-01-23T01:47:21.871Z,28.70
2019-01-23T01:49:52.227Z,26.77
2019-01-23T01:52:22.578Z,28.77
2019-01-23T01:54:52.844Z,27.53
2019-01-23T01:57:23.172Z,27.23
2019-01-23T01:59:53.392Z,27.20
2019-01-23T02:02:24.242Z,27.07
2019-01-23T02:04:54.572Z,27.80
2019-01-23T02:07:24.933Z,26.27
2019-01-23T02:09:55.252Z,27.73
2019-01-23T02:12:25.597Z,27.57
2019-01-23T02:14:55.895Z,27.63
2019-01-23T02:17:26.475Z,27.10
2019-01-23T02:19:57.082Z,28.53
2019-01-23T02:22:27.662Z,26.97
2019-01-23T02:24:57.953Z,27.70
2019-01-23T02:27:28.377Z,27.23
2019-01-23T02:29:58.508Z,26.40
2019-01-23T02:32:28.877Z,28.73
2019-01-23T02:34:59.288Z,26.83
2019-01-23T02:37:29.686Z,26.93
2019-01-23T02:40:00.343Z,26.07
2019-01-23T02:42:30.816Z,27.07
2019-01-23T02:45:01.149Z,27.73
2019-01-23T02:47:31.737Z,27.97
2019-01-23T02:50:02.575Z,27.62
2019-01-23T02:52:32.932Z,28.00
2019-01-23T02:55:03.232Z,26.67
2019-01-23T02:57:33.648Z,28.03
2019-01-23T03:00:04.935Z,28.67
2019-01-23T03:02:35.919Z,27.43
2019-01-23T03:05:09.449Z,28.10
2019-01-23T03:07:39.773Z,28.73
2019-01-23T03:10:14.167Z,29.23
2019-01-23T03:12:44.486Z,29.17
2019-01-23T03:15:15.422Z,29.50
2019-01-23T03:17:45.767Z,28.75
2019-01-23T03:20:18.266Z,29.13
2019-01-23T03:22:48.855Z,30.10
2019-01-23T03:25:19.279Z,28.55
2019-01-23T03:27:49.824Z,28.70
2019-01-23T03:30:24.756Z,28.30
2019-01-23T03:32:55.063Z,29.35
2019-01-23T03:35:25.584Z,28.13
2019-01-23T03:37:55.871Z,28.77
2019-01-23T03:40:26.168Z,30.07
2019-01-23T03:42:56.516Z,27.90
2019-01-23T03:45:27.208Z,28.70
2019-01-23T03:47:57.506Z,29.60
2019-01-23T03:50:27.879Z,27.97
2019-01-23T03:52:58.336Z,28.90
2019-01-23T03:55:28.606Z,27.70
2019-01-23T03:57:59.199Z,30.08
2019-01-23T04:00:29.531Z,30.13
2019-01-23T04:02:59.834Z,29.20
2019-01-23T04:05:31.119Z,29.37
2019-01-23T04:08:01.586Z,29.33
2019-01-23T04:10:31.960Z,30.20
2019-01-23T04:13:02.366Z,30.30
2019-01-23T04:15:32.643Z,29.27
2019-01-23T04:18:03.028Z,28.43
2019-01-23T04:20:33.499Z,30.27
2019-01-23T04:23:03.758Z,30.37
2019-01-23T04:25:34.193Z,30.43
2019-01-23T04:28:05.077Z,31.23
2019-01-23T04:30:35.850Z,42.83
2019-01-23T04:33:06.312Z,34.77
2019-01-23T04:35:36.883Z,33.87
2019-01-23T04:38:07.461Z,32.33
2019-01-23T04:40:37.722Z,31.57
2019-01-23T04:43:08.223Z,32.30
2019-01-23T04:45:38.507Z,30.70
2019-01-23T04:48:08.910Z,31.23
2019-01-23T04:50:57.109Z,30.97
2019-01-23T04:53:34.602Z,31.37
2019-01-23T04:56:04.905Z,30.80
2019-01-23T04:58:35.558Z,30.50
2019-01-23T05:01:05.988Z,32.10
2019-01-23T05:03:36.287Z,30.20
2019-01-23T05:06:06.878Z,30.83
2019-01-23T05:08:37.619Z,34.63
2019-01-23T05:11:07.947Z,37.23
2019-01-23T05:13:38.354Z,41.85
2019-01-23T05:16:09.832Z,40.27
2019-01-23T05:18:40.158Z,37.03
2019-01-23T05:21:10.564Z,34.13
2019-01-23T05:23:40.810Z,33.67
2019-01-23T05:26:11.133Z,32.83
2019-01-23T05:28:41.483Z,32.60
2019-01-23T05:31:11.791Z,31.60
2019-01-23T05:33:42.084Z,30.20
2019-01-23T05:36:13.079Z,31.03
2019-01-23T05:38:43.352Z,33.10
2019-01-23T05:41:13.727Z,31.87
2019-01-23T05:43:44.154Z,32.17
2019-01-23T05:46:15.592Z,31.83
2019-01-23T05:48:45.842Z,31.97
2019-01-23T05:51:16.300Z,34.33
2019-01-23T05:53:46.634Z,33.73
2019-01-23T05:56:16.953Z,31.83
2019-01-23T05:58:48.036Z,32.90
2019-01-23T06:01:18.444Z,34.13
2019-01-23T06:03:48.715Z,32.93
2019-01-23T06:06:19.201Z,33.13
2019-01-23T06:08:49.785Z,34.40
2019-01-23T06:11:20.088Z,33.73
2019-01-23T06:13:50.440Z,33.42
2019-01-23T06:16:21.023Z,32.55
2019-01-23T06:18:51.314Z,35.93
2019-01-23T06:21:21.686Z,33.17
2019-01-23T06:23:52.013Z,34.27
2019-01-23T06:26:22.280Z,36.53
2019-01-23T06:28:52.538Z,36.80
2019-01-23T06:31:22.780Z,34.80
2019-01-23T06:33:53.169Z,35.90
2019-01-23T06:36:23.562Z,35.90
2019-01-23T06:38:53.901Z,35.78
2019-01-23T06:41:24.220Z,34.57
2019-01-23T06:43:54.980Z,38.80
2019-01-23T06:46:25.276Z,35.93
2019-01-23T06:48:55.632Z,35.60
2019-01-23T06:51:26.093Z,35.03
2019-01-23T06:53:56.845Z,36.47
2019-01-23T06:56:27.167Z,34.00
2019-01-23T06:58:58.027Z,35.00
2019-01-23T07:01:28.300Z,34.97
2019-01-23T07:03:58.541Z,34.17
2019-01-23T07:06:28.887Z,34.53
2019-01-23T07:08:59.208Z,34.97
2019-01-23T07:11:29.470Z,34.80
2019-01-23T07:13:59.839Z,34.38
2019-01-23T07:16:30.373Z,35.67
2019-01-23T07:19:00.688Z,36.00
2019-01-23T07:21:32.147Z,35.63
2019-01-23T07:24:02.441Z,34.10
2019-01-23T07:26:32.764Z,34.07
2019-01-23T07:29:03.113Z,34.73
2019-01-23T07:31:33.313Z,35.70
2019-01-23T07:34:03.651Z,35.27
2019-01-23T07:36:33.934Z,35.17
2019-01-23T07:39:06.757Z,34.98
2019-01-23T07:41:37.426Z,34.90
2019-01-23T07:44:08.292Z,34.97
2019-01-23T07:46:38.918Z,35.97
2019-01-23T07:49:09.271Z,35.05
2019-01-23T07:51:39.546Z,36.23
2019-01-23T07:54:09.824Z,34.97
2019-01-23T07:56:40.129Z,34.37
2019-01-23T07:59:10.446Z,35.67
2019-01-23T08:01:40.787Z,35.27
2019-01-23T08:04:11.089Z,34.20
2019-01-23T08:06:41.656Z,34.57
2019-01-23T08:09:13.571Z,33.50
2019-01-23T08:11:43.895Z,36.50
2019-01-23T08:14:14.168Z,35.33
2019-01-23T08:16:44.415Z,35.30
2019-01-23T08:19:14.799Z,36.40
2019-01-23T08:21:46.219Z,35.93
2019-01-23T08:24:16.486Z,35.70
2019-01-23T08:26:46.883Z,34.20
2019-01-23T08:29:17.291Z,36.50
2019-01-23T08:31:47.565Z,34.97
2019-01-23T08:34:17.815Z,36.80
2019-01-23T08:36:48.096Z,37.47
2019-01-23T08:39:18.364Z,37.25
2019-01-23T08:41:48.786Z,36.00
2019-01-23T08:44:19.076Z,35.73
2019-01-23T08:46:49.353Z,39.13
2019-01-23T08:49:19.685Z,38.48
2019-01-23T08:51:49.960Z,38.97
2019-01-23T08:54:20.155Z,38.23
2019-01-23T08:56:51.023Z,37.30
2019-01-23T08:59:21.303Z,39.73
2019-01-23T09:01:51.878Z,37.50
2019-01-23T09:04:22.524Z,37.87
2019-01-23T09:06:53.063Z,39.17
2019-01-23T09:09:23.335Z,39.90
2019-01-23T09:11:54.554Z,37.85
2019-01-23T09:14:24.792Z,36.80
2019-01-23T09:16:55.087Z,36.97
2019-01-23T09:19:25.412Z,37.00
2019-01-23T09:21:55.669Z,40.55
2019-01-23T09:24:26.176Z,38.00
2019-01-23T09:26:56.542Z,40.00
2019-01-23T09:29:26.852Z,37.23
2019-01-23T09:32:43.458Z,39.60
2019-01-23T09:36:23.318Z,39.42
2019-01-23T09:40:18.251Z,37.57
2019-01-23T09:43:26.942Z,37.30
2019-01-23T09:46:45.616Z,35.73
2019-01-23T09:49:56.459Z,39.68
2019-01-23T09:53:05.306Z,41.37
2019-01-23T09:55:36.080Z,30.50
2019-01-23T09:58:09.984Z,36.23
2019-01-23T10:00:40.339Z,38.43
2019-01-23T10:03:10.571Z,39.33
2019-01-23T10:05:41.009Z,39.45
2019-01-23T10:08:11.371Z,36.37
2019-01-23T10:10:41.655Z,40.13
2019-01-23T10:13:12.209Z,37.97
2019-01-23T10:16:20.313Z,37.63
2019-01-23T10:18:55.968Z,39.40
2019-01-23T10:21:22.772Z,40.33
2019-01-23T10:23:53.094Z,41.37
2019-01-23T10:26:23.332Z,39.70
2019-01-23T10:28:53.648Z,39.83
2019-01-23T10:31:24.108Z,39.38
2019-01-23T10:33:54.459Z,39.13
2019-01-23T10:36:24.717Z,40.78
2019-01-23T10:38:55.038Z,39.20
2019-01-23T10:41:25.245Z,40.87
2019-01-23T10:43:55.553Z,39.63
2019-01-23T10:46:25.909Z,40.05
2019-01-23T10:48:56.184Z,40.93
2019-01-23T10:51:26.485Z,39.27
2019-01-23T10:53:56.820Z,41.28
2019-01-23T10:56:27.229Z,41.47
2019-01-23T10:58:57.542Z,39.63
2019-01-23T11:01:27.857Z,37.94
2019-01-23T11:03:58.168Z,39.27
2019-01-23T11:06:28.437Z,40.92
2019-01-23T11:08:58.756Z,39.87
2019-01-23T11:11:29.119Z,38.47
2019-01-23T11:13:59.448Z,40.07
2019-01-23T11:16:30.158Z,39.10
2019-01-23T11:19:00.433Z,38.43
2019-01-23T11:21:30.771Z,40.93
2019-01-23T11:24:01.237Z,39.13
2019-01-23T11:26:31.857Z,39.80
2019-01-23T11:29:02.158Z,39.17
2019-01-23T11:31:32.491Z,38.95
2019-01-23T11:34:02.894Z,36.43
2019-01-23T11:36:33.432Z,39.77
2019-01-23T11:39:05.516Z,40.23
2019-01-23T11:41:35.782Z,40.37
2019-01-23T11:44:06.198Z,39.00
2019-01-23T11:46:36.637Z,38.87
2019-01-23T11:49:06.937Z,39.93
2019-01-23T11:51:37.250Z,40.23
2019-01-23T11:54:07.591Z,39.77
2019-01-23T11:56:37.872Z,40.93
2019-01-23T11:59:08.122Z,39.70
2019-01-23T12:01:38.537Z,38.85
2019-01-23T12:04:08.842Z,37.27
2019-01-23T12:06:39.598Z,39.13
2019-01-23T12:09:11.096Z,38.93
2019-01-23T12:11:41.438Z,39.20
2019-01-23T12:14:11.720Z,40.00
2019-01-23T12:16:42.221Z,38.97
2019-01-23T12:19:12.793Z,41.47
2019-01-23T12:21:43.064Z,41.03
2019-01-23T12:24:13.415Z,39.87
2019-01-23T12:26:43.673Z,39.27
2019-01-23T12:29:14.137Z,40.27
2019-01-23T12:31:44.808Z,40.33
2019-01-23T12:34:15.153Z,38.97
2019-01-23T12:36:45.823Z,39.37
2019-01-23T12:39:16.159Z,40.80
2019-01-23T12:41:46.765Z,41.77
2019-01-23T12:44:17.616Z,39.90
2019-01-23T12:46:48.484Z,39.13
2019-01-23T12:49:18.870Z,40.03
2019-01-23T12:51:49.226Z,41.10
2019-01-23T12:54:19.877Z,40.63
2019-01-23T12:56:50.190Z,39.90
2019-01-23T12:59:20.531Z,41.83
2019-01-23T13:01:50.731Z,42.43
2019-01-23T13:04:21.348Z,41.20
2019-01-23T13:06:51.668Z,40.57
2019-01-23T13:09:21.910Z,41.83
2019-01-23T13:11:53.311Z,41.57
2019-01-23T13:14:23.604Z,43.07
2019-01-23T13:16:54.155Z,41.43
2019-01-23T13:19:24.499Z,41.47
2019-01-23T13:21:54.779Z,42.33
2019-01-23T13:24:25.067Z,41.83
2019-01-23T13:26:55.311Z,42.60
2019-01-23T13:29:25.638Z,43.13
2019-01-23T13:31:55.879Z,42.27
2019-01-23T13:34:26.198Z,43.40
2019-01-23T13:36:56.478Z,42.58
2019-01-23T13:39:26.784Z,42.77
2019-01-23T13:41:57.094Z,44.07
2019-01-23T13:44:27.389Z,42.90
2019-01-23T13:46:57.700Z,42.25
2019-01-23T13:49:27.960Z,43.83
2019-01-23T13:51:58.284Z,41.23
2019-01-23T13:54:28.608Z,41.18
2019-01-23T13:56:58.972Z,42.70
2019-01-23T13:59:29.226Z,42.13
2019-01-23T14:01:59.530Z,41.97
2019-01-23T14:04:29.840Z,41.00
2019-01-23T14:07:00.131Z,40.37
2019-01-23T14:09:30.425Z,42.70
2019-01-23T14:12:00.997Z,40.60
2019-01-23T14:14:31.279Z,40.40
2019-01-23T14:17:01.522Z,41.17
2019-01-23T14:19:31.971Z,39.25
2019-01-23T14:22:02.255Z,41.20
2019-01-23T14:24:32.494Z,40.23
2019-01-23T14:27:02.835Z,42.43
2019-01-23T14:29:33.161Z,41.20
2019-01-23T14:32:03.752Z,41.10
2019-01-23T14:34:34.184Z,39.93
2019-01-23T14:37:04.535Z,40.90
2019-01-23T14:39:35.320Z,40.43
2019-01-23T14:42:05.843Z,39.83
2019-01-23T14:44:36.243Z,39.73
2019-01-23T14:47:07.300Z,41.85
2019-01-23T14:49:37.783Z,39.83
2019-01-23T14:52:08.192Z,39.07
2019-01-23T14:54:38.486Z,40.77
2019-01-23T14:57:08.829Z,40.77
2019-01-23T14:59:39.091Z,36.00
2019-01-23T15:02:10.325Z,39.87
2019-01-23T15:04:41.159Z,39.53
2019-01-23T15:07:11.436Z,38.77
2019-01-23T15:09:41.705Z,39.50
2019-01-23T15:12:12.072Z,39.07
2019-01-23T15:14:42.314Z,40.87
2019-01-23T15:17:12.606Z,39.20
2019-01-23T15:19:42.857Z,40.57
2019-01-23T15:22:13.184Z,40.77
2019-01-23T15:24:43.491Z,40.50
2019-01-23T15:27:13.842Z,40.43
2019-01-23T15:29:44.467Z,44.50
2019-01-23T15:32:17.330Z,42.17
2019-01-23T15:34:47.293Z,40.27
2019-01-23T15:37:17.607Z,40.97
2019-01-23T15:39:49.241Z,38.57
2019-01-23T15:42:19.669Z,38.70
2019-01-23T15:44:50.183Z,39.93
2019-01-23T15:47:20.684Z,41.10
2019-01-23T15:49:50.961Z,41.17
2019-01-23T15:52:21.280Z,41.83
2019-01-23T15:54:51.668Z,43.20
2019-01-23T15:57:21.960Z,39.77
2019-01-23T15:59:52.230Z,38.13
2019-01-23T16:02:24.449Z,39.77
2019-01-23T16:04:54.568Z,39.40
2019-01-23T16:07:25.167Z,41.83
2019-01-23T16:09:57.818Z,43.57
2019-01-23T16:12:28.372Z,39.87
2019-01-23T16:14:59.238Z,39.60
2019-01-23T16:17:29.569Z,40.73
2019-01-23T16:20:00.110Z,40.37
2019-01-23T16:22:30.411Z,38.03
2019-01-23T16:25:01.875Z,41.60
2019-01-23T16:27:32.588Z,40.87
2019-01-23T16:30:02.853Z,40.78
2019-01-23T16:32:33.191Z,39.80
2019-01-23T16:35:03.548Z,40.10
2019-01-23T16:37:34.044Z,42.87
2019-01-23T16:40:05.542Z,43.53
2019-01-23T16:42:35.919Z,41.73
2019-01-23T16:45:08.063Z,43.05
2019-01-23T16:47:38.353Z,43.10
2019-01-23T16:50:16.599Z,43.47
2019-01-23T16:52:46.917Z,43.73
2019-01-23T16:55:17.356Z,41.40
2019-01-23T16:57:49.103Z,41.77
2019-01-23T17:00:23.576Z,43.92
2019-01-23T17:02:54.140Z,43.73
2019-01-23T17:05:28.823Z,41.53
2019-01-23T17:08:01.441Z,42.90
2019-01-23T17:10:31.908Z,41.73
2019-01-23T17:13:02.795Z,43.33
2019-01-23T17:15:33.933Z,42.57
2019-01-23T17:18:04.235Z,38.03
2019-01-23T17:20:41.507Z,40.67
2019-01-23T17:23:11.763Z,42.73
2019-01-23T17:25:42.055Z,42.10
2019-01-23T17:28:13.659Z,41.90
2019-01-23T17:30:44.245Z,41.27
2019-01-23T17:33:14.526Z,41.93
2019-01-23T17:35:45.197Z,42.73
2019-01-23T17:38:15.444Z,44.47
2019-01-23T17:40:45.807Z,44.70
2019-01-23T17:43:16.439Z,43.00
2019-01-23T17:45:46.816Z,43.50
2019-01-23T17:48:17.103Z,41.90
2019-01-23T17:50:52.346Z,41.80
2019-01-23T17:53:24.979Z,40.80
2019-01-23T17:55:55.278Z,42.47
2019-01-23T17:58:25.600Z,42.67
2019-01-23T18:00:57.636Z,43.73
2019-01-23T18:03:27.940Z,42.80
2019-01-23T18:05:58.251Z,43.30
2019-01-23T18:08:28.558Z,41.63
2019-01-23T18:10:58.890Z,40.93
2019-01-23T18:13:29.502Z,43.17
2019-01-23T18:16:10.871Z,41.07
2019-01-23T18:18:41.267Z,43.20
2019-01-23T18:21:11.510Z,42.50
2019-01-23T18:23:41.819Z,42.10
2019-01-23T18:26:12.162Z,43.53
2019-01-23T18:28:42.448Z,43.30
2019-01-23T18:31:50.153Z,42.17
2019-01-23T18:35:03.427Z,40.63
2019-01-23T18:38:17.815Z,39.75
2019-01-23T18:41:56.595Z,42.13
2019-01-23T18:45:01.129Z,43.20
2019-01-23T18:48:17.162Z,39.20
2019-01-23T18:51:46.556Z,42.33
2019-01-23T18:54:16.862Z,41.90
2019-01-23T18:56:47.186Z,41.67
2019-01-23T18:59:18.067Z,40.87
2019-01-23T19:01:48.681Z,43.70
2019-01-23T19:04:18.979Z,43.13
2019-01-23T19:06:49.335Z,45.77
2019-01-23T19:09:19.594Z,45.87
2019-01-23T19:11:49.861Z,44.27
2019-01-23T19:14:24.433Z,41.58
2019-01-23T19:16:52.293Z,45.03
2019-01-23T19:19:22.764Z,46.02
2019-01-23T19:21:55.180Z,43.63
2019-01-23T19:24:25.083Z,43.47
2019-01-23T19:26:55.660Z,44.87
2019-01-23T19:29:25.979Z,43.23
2019-01-23T19:31:56.258Z,43.73
2019-01-23T19:34:26.555Z,39.80
2019-01-23T19:36:56.819Z,47.43
2019-01-23T19:39:27.143Z,43.63
2019-01-23T19:41:57.891Z,42.70
2019-01-23T19:44:28.424Z,42.62
2019-01-23T19:46:58.781Z,43.77
2019-01-23T19:49:29.322Z,41.63
2019-01-23T19:51:59.622Z,45.47
2019-01-23T19:54:29.891Z,46.93
2019-01-23T19:57:00.255Z,46.68
2019-01-23T19:59:30.528Z,49.83
2019-01-23T20:02:00.777Z,51.90
2019-01-23T20:04:31.278Z,50.37
2019-01-23T20:07:01.542Z,54.07
2019-01-23T20:09:31.861Z,52.00
2019-01-23T20:12:02.331Z,52.73
2019-01-23T20:14:32.655Z,51.83
2019-01-23T20:17:02.875Z,53.13
2019-01-23T20:19:33.288Z,51.45
2019-01-23T20:22:03.594Z,49.93
2019-01-23T20:24:33.924Z,52.50
2019-01-23T20:27:04.299Z,52.63
2019-01-23T20:29:34.937Z,51.10
2019-01-23T20:32:06.615Z,52.53
2019-01-23T20:34:37.295Z,55.10
2019-01-23T20:37:07.620Z,53.30
2019-01-23T20:39:37.893Z,54.07
2019-01-23T20:42:08.256Z,54.43
2019-01-23T20:44:38.567Z,57.90
2019-01-23T20:47:08.873Z,56.92
2019-01-23T20:49:39.212Z,58.07
2019-01-23T20:52:09.623Z,55.67
2019-01-23T20:54:39.898Z,58.63
2019-01-23T20:57:10.341Z,57.37
2019-01-23T20:59:40.617Z,55.90
2019-01-23T21:02:11.275Z,54.13
2019-01-23T21:04:41.722Z,55.43
2019-01-23T21:07:12.050Z,57.07
2019-01-23T21:09:42.310Z,56.40
2019-01-23T21:12:18.597Z,57.48
2019-01-23T21:14:44.743Z,58.77
2019-01-23T21:17:15.048Z,60.40
2019-01-23T21:19:45.412Z,59.50
2019-01-23T21:22:15.762Z,58.20
2019-01-23T21:24:46.098Z,57.65
2019-01-23T21:27:16.462Z,59.60
2019-01-23T21:29:46.742Z,58.93
2019-01-23T21:32:16.993Z,77.17
2019-01-23T21:34:47.573Z,64.80
2019-01-23T21:37:17.738Z,62.73
2019-01-23T21:39:47.903Z,59.73
2019-01-23T21:42:18.278Z,57.27
2019-01-23T21:44:51.617Z,60.38
2019-01-23T21:47:21.899Z,59.83
2019-01-23T21:49:52.364Z,58.43
2019-01-23T21:52:22.678Z,58.47
2019-01-23T21:54:52.966Z,56.87
2019-01-23T21:57:23.304Z,58.33
2019-01-23T21:59:53.801Z,61.93
2019-01-23T22:02:24.193Z,61.13
2019-01-23T22:04:54.525Z,61.37
2019-01-23T22:07:24.782Z,60.93
2019-01-23T22:09:55.046Z,61.37
2019-01-23T22:12:25.573Z,61.97
2019-01-23T22:14:55.917Z,60.70
2019-01-23T22:17:26.197Z,61.83
2019-01-23T22:19:56.858Z,57.30
2019-01-23T22:22:27.152Z,59.17
2019-01-23T22:24:57.449Z,58.87
2019-01-23T22:27:27.789Z,55.43
2019-01-23T22:29:58.122Z,57.27
2019-01-23T22:32:28.377Z,55.97
2019-01-23T22:34:58.983Z,57.00
2019-01-23T22:37:29.306Z,57.93
2019-01-23T22:39:59.603Z,58.83
2019-01-23T22:42:29.908Z,56.70
2019-01-23T22:45:00.206Z,58.28
2019-01-23T22:47:30.554Z,56.57
2019-01-23T22:50:00.861Z,57.57
2019-01-23T22:52:31.303Z,62.77
2019-01-23T22:55:01.614Z,61.53
2019-01-23T22:57:31.961Z,60.77
2019-01-23T23:00:02.315Z,56.73
2019-01-23T23:02:32.699Z,54.60
2019-01-23T23:05:03.070Z,54.17
2019-01-23T23:07:33.418Z,57.80
2019-01-23T23:10:03.788Z,54.53
2019-01-23T23:12:34.354Z,55.80
2019-01-23T23:15:05.524Z,54.93
2019-01-23T23:17:35.831Z,54.70
2019-01-23T23:20:06.856Z,56.40
2019-01-23T23:22:37.722Z,55.97
2019-01-23T23:25:08.452Z,57.17
2019-01-23T23:27:39.535Z,56.37
2019-01-23T23:30:12.660Z,55.70
2019-01-23T23:32:43.241Z,60.07
2019-01-23T23:35:13.572Z,55.90
2019-01-23T23:37:43.878Z,55.37
2019-01-23T23:40:14.429Z,57.10
2019-01-23T23:42:44.962Z,57.33
2019-01-23T23:45:16.341Z,53.93
2019-01-23T23:47:47.137Z,60.73
2019-01-23T23:50:17.620Z,58.67
2019-01-23T23:52:48.437Z,59.42
2019-01-23T23:55:19.365Z,59.40
2019-01-23T23:57:49.908Z,59.93
